Sautee Nacoochee, Georgia
Current Conditions -  °F | °C
As of 1:55 PM on Wednesday 26 Nov 2014 (Local Time) from KTOC Reporting Station
Clear Clear  
Wind Chill: 59°   Ceiling: Unl
Heat Index: 59°   Visibility: 10mi
Dew Point: 27°   Wind: 9mph
Humidity: 29%   Direction: 250°WSW
Pressure: 29.99"   Gusts: 16mph
Location:  34.72°N, 83.73°W
Report Text: KTOC 261855Z AUTO 25008G14KT 10SM CLR 15/M03 A2999 RMK AO2 T01481030
Loading
Personal Weather Stations






























Interactive Weather Map New forecast layout! Learn more

10-Day Weather Forecast

Advertisements
Track Severe Weather on mobile